createdAt,value
2022-08-16T00:03:13.651Z,70.91
2022-08-16T00:06:21.229Z,70.82
2022-08-16T00:09:27.584Z,70.81
2022-08-16T00:12:34.713Z,71.05
2022-08-16T00:15:51.986Z,70.94
2022-08-16T00:19:01.141Z,71.17
2022-08-16T00:22:12.983Z,71.20
2022-08-16T00:26:33.438Z,71.27
2022-08-16T00:28:49.541Z,71.22
2022-08-16T00:32:05.934Z,71.22
2022-08-16T00:35:16.306Z,71.45
2022-08-16T00:38:40.514Z,71.55
2022-08-16T00:41:50.005Z,71.25
2022-08-16T00:45:00.590Z,71.37
2022-08-16T00:48:30.308Z,71.42
2022-08-16T00:51:38.677Z,71.39
2022-08-16T00:54:44.906Z,71.43
2022-08-16T00:58:00.145Z,71.48
2022-08-16T01:01:08.828Z,71.32
2022-08-16T01:04:29.341Z,71.45
2022-08-16T01:07:50.713Z,71.52
2022-08-16T01:11:00.077Z,71.51
2022-08-16T01:14:13.610Z,71.63
2022-08-16T01:17:21.069Z,71.64
2022-08-16T01:20:35.018Z,71.59
2022-08-16T01:23:57.990Z,71.63
2022-08-16T01:27:15.021Z,71.81
2022-08-16T01:30:26.344Z,71.80
2022-08-16T01:33:33.256Z,71.84
2022-08-16T01:36:39.895Z,71.81
2022-08-16T01:39:47.320Z,71.82
2022-08-16T01:42:55.332Z,71.82
2022-08-16T01:46:37.748Z,72.10
2022-08-16T01:50:40.599Z,72.20
2022-08-16T01:52:59.075Z,72.06
2022-08-16T01:56:07.111Z,72.19
2022-08-16T01:59:16.965Z,72.26
2022-08-16T02:02:27.503Z,72.37
2022-08-16T02:05:34.981Z,72.41
2022-08-16T02:08:41.072Z,72.46
2022-08-16T02:11:52.903Z,72.50
2022-08-16T02:15:00.196Z,72.41
2022-08-16T02:18:08.427Z,72.39
2022-08-16T02:21:31.264Z,72.44
2022-08-16T02:24:41.118Z,72.45
2022-08-16T02:27:51.102Z,72.49
2022-08-16T02:31:00.003Z,72.68
2022-08-16T02:34:08.217Z,72.65
2022-08-16T02:37:20.865Z,72.71
2022-08-16T02:40:28.417Z,72.68
2022-08-16T02:43:37.786Z,72.73
2022-08-16T02:46:49.725Z,72.72
2022-08-16T02:50:52.290Z,72.60
2022-08-16T02:53:23.813Z,72.83
2022-08-16T02:56:32.048Z,72.82
2022-08-16T02:59:41.498Z,72.85
2022-08-16T03:02:48.137Z,72.89
2022-08-16T03:06:02.466Z,72.89
2022-08-16T03:09:29.905Z,72.97
2022-08-16T03:12:55.493Z,72.94
2022-08-16T03:16:02.859Z,73.06
2022-08-16T03:19:09.572Z,73.09
2022-08-16T03:22:18.912Z,73.09
2022-08-16T03:25:41.189Z,73.19
2022-08-16T03:28:51.099Z,73.01
2022-08-16T03:31:58.979Z,73.07
2022-08-16T03:35:06.538Z,73.18
2022-08-16T03:38:34.565Z,73.20
2022-08-16T03:41:50.550Z,73.22
2022-08-16T03:45:03.800Z,73.27
2022-08-16T03:48:15.151Z,73.29
2022-08-16T03:51:25.893Z,73.24
2022-08-16T03:54:31.909Z,73.27
2022-08-16T03:57:42.162Z,73.32
2022-08-16T04:00:59.407Z,73.38
2022-08-16T04:04:06.107Z,73.42
2022-08-16T04:07:15.071Z,73.51
2022-08-16T04:10:35.855Z,73.58
2022-08-16T04:14:00.625Z,73.65
2022-08-16T04:17:09.777Z,73.65
2022-08-16T04:20:29.527Z,73.67
2022-08-16T04:23:40.026Z,73.76
2022-08-16T04:26:46.769Z,73.92
2022-08-16T04:29:53.105Z,74.02
2022-08-16T04:33:09.945Z,74.03
2022-08-16T04:36:20.166Z,74.07
2022-08-16T04:39:46.242Z,74.12
2022-08-16T04:42:54.789Z,74.39
2022-08-16T04:46:03.191Z,74.37
2022-08-16T04:49:09.896Z,74.39
2022-08-16T04:52:32.852Z,74.38
2022-08-16T04:55:41.671Z,74.69
2022-08-16T04:58:48.222Z,74.83
2022-08-16T05:01:58.767Z,74.85
2022-08-16T05:05:06.405Z,74.95
2022-08-16T05:08:29.720Z,75.05
2022-08-16T05:11:36.764Z,75.24
2022-08-16T05:14:46.509Z,75.30
2022-08-16T05:18:07.755Z,75.04
2022-08-16T05:21:23.388Z,75.22
2022-08-16T05:24:29.632Z,75.18
2022-08-16T05:27:43.031Z,75.43
2022-08-16T05:30:51.390Z,75.88
2022-08-16T05:33:57.650Z,75.99
2022-08-16T05:37:04.558Z,75.84
2022-08-16T05:40:14.375Z,76.00
2022-08-16T05:43:21.518Z,76.08
2022-08-16T05:46:30.226Z,75.69
2022-08-16T05:49:39.619Z,75.66
2022-08-16T05:52:46.524Z,75.15
2022-08-16T05:55:53.214Z,74.94
2022-08-16T05:58:59.800Z,74.94
2022-08-16T06:02:06.408Z,75.22
2022-08-16T06:05:14.558Z,75.08
2022-08-16T06:08:31.496Z,75.07
2022-08-16T06:11:39.038Z,74.99
2022-08-16T06:14:49.633Z,75.11
2022-08-16T06:17:59.022Z,74.88
2022-08-16T06:21:06.747Z,74.79
2022-08-16T06:24:52.778Z,74.70
2022-08-16T06:27:41.994Z,74.90
2022-08-16T06:31:03.999Z,74.74
2022-08-16T06:34:55.778Z,74.71
2022-08-16T06:37:37.802Z,74.57
2022-08-16T06:40:47.931Z,74.61
2022-08-16T06:43:56.611Z,74.67
2022-08-16T06:47:03.061Z,74.68
2022-08-16T06:50:10.939Z,74.58
2022-08-16T06:53:29.662Z,74.54
2022-08-16T06:56:36.428Z,74.56
2022-08-16T06:59:52.496Z,74.69
2022-08-16T07:03:04.263Z,74.39
2022-08-16T07:06:31.547Z,74.19
2022-08-16T07:09:37.975Z,74.13
2022-08-16T07:12:47.392Z,74.25
2022-08-16T07:16:15.444Z,73.96
2022-08-16T07:19:21.694Z,73.64
2022-08-16T07:22:52.660Z,73.48
2022-08-16T07:26:05.948Z,73.52
2022-08-16T07:29:12.151Z,73.13
2022-08-16T07:32:20.980Z,73.23
2022-08-16T07:35:36.321Z,72.66
2022-08-16T07:38:43.551Z,72.13
2022-08-16T07:41:51.562Z,71.80
2022-08-16T07:44:59.475Z,70.61
2022-08-16T07:48:11.821Z,70.63
2022-08-16T07:51:18.966Z,70.11
2022-08-16T07:54:32.347Z,69.48
2022-08-16T07:58:00.958Z,68.72
2022-08-16T08:01:12.674Z,68.13
2022-08-16T08:04:21.696Z,68.00
2022-08-16T08:07:29.329Z,67.42
2022-08-16T08:10:38.954Z,66.77
2022-08-16T08:13:45.124Z,66.57
2022-08-16T08:16:51.994Z,66.37
2022-08-16T08:19:59.339Z,65.75
2022-08-16T08:23:06.027Z,64.88
2022-08-16T08:26:17.392Z,64.83
2022-08-16T08:29:36.877Z,64.57
2022-08-16T08:32:58.489Z,64.26
2022-08-16T08:36:11.698Z,63.81
2022-08-16T08:39:28.082Z,63.38
2022-08-16T08:42:34.354Z,62.96
2022-08-16T08:45:47.202Z,62.70
2022-08-16T08:48:59.686Z,62.41
2022-08-16T08:52:09.553Z,62.17
2022-08-16T08:55:17.038Z,61.85
2022-08-16T08:58:23.137Z,61.61
2022-08-16T09:01:36.513Z,61.08
2022-08-16T09:04:43.355Z,61.04
2022-08-16T09:08:01.037Z,61.00
2022-08-16T09:11:08.195Z,60.44
2022-08-16T09:14:24.219Z,60.46
2022-08-16T09:17:49.060Z,60.14
2022-08-16T09:21:01.791Z,59.77
2022-08-16T09:24:09.818Z,59.76
2022-08-16T09:27:16.295Z,59.76
2022-08-16T09:30:34.728Z,59.09
2022-08-16T09:33:52.041Z,59.03
2022-08-16T09:37:00.301Z,59.04
2022-08-16T09:40:31.681Z,59.05
2022-08-16T09:43:59.703Z,58.89
2022-08-16T09:47:03.514Z,58.59
2022-08-16T09:50:22.921Z,58.57
2022-08-16T09:53:30.313Z,58.33
2022-08-16T09:56:39.137Z,58.07
2022-08-16T09:59:45.381Z,57.86
2022-08-16T10:02:52.811Z,57.87
2022-08-16T10:05:59.019Z,57.83
2022-08-16T10:09:06.790Z,57.54
2022-08-16T10:12:32.381Z,57.45
2022-08-16T10:15:41.745Z,57.33
2022-08-16T10:19:00.748Z,56.84
2022-08-16T10:22:12.807Z,56.67
2022-08-16T10:27:19.484Z,56.59
2022-08-16T10:28:45.736Z,56.23
2022-08-16T10:31:56.536Z,56.04
2022-08-16T10:35:03.883Z,55.82
2022-08-16T10:38:10.094Z,55.34
2022-08-16T10:41:33.853Z,55.36
2022-08-16T10:44:40.027Z,55.23
2022-08-16T10:48:00.484Z,54.68
2022-08-16T10:51:10.399Z,54.46
2022-08-16T10:54:29.097Z,54.33
2022-08-16T10:57:36.404Z,54.10
2022-08-16T11:00:46.314Z,53.92
2022-08-16T11:03:54.505Z,53.83
2022-08-16T11:07:08.684Z,53.58
2022-08-16T11:14:10.761Z,53.25
2022-08-16T11:17:18.494Z,53.29
2022-08-16T11:20:48.954Z,52.92
2022-08-16T11:23:58.190Z,52.60
2022-08-16T11:27:23.314Z,52.48
2022-08-16T11:30:39.378Z,51.99
2022-08-16T11:33:53.253Z,52.07
2022-08-16T11:37:00.993Z,51.85
2022-08-16T11:40:09.925Z,51.92
2022-08-16T11:43:20.358Z,51.69
2022-08-16T11:46:45.345Z,51.63
2022-08-16T11:49:53.140Z,51.58
2022-08-16T11:52:59.297Z,51.61
2022-08-16T11:56:09.291Z,51.53
2022-08-16T11:59:16.017Z,51.33
2022-08-16T12:02:31.589Z,50.97
2022-08-16T12:05:40.517Z,50.77
2022-08-16T12:08:48.982Z,50.70
2022-08-16T12:11:55.412Z,50.38
2022-08-16T12:15:01.964Z,50.21
2022-08-16T12:18:09.529Z,50.07
2022-08-16T12:21:15.741Z,49.56
2022-08-16T12:24:26.311Z,49.28
2022-08-16T12:27:33.214Z,49.07
2022-08-16T12:30:43.809Z,48.98
2022-08-16T12:33:50.767Z,48.82
2022-08-16T12:37:05.674Z,48.99
2022-08-16T12:40:23.917Z,48.65
2022-08-16T12:43:31.486Z,48.17
2022-08-16T12:46:37.717Z,47.78
2022-08-16T12:49:45.246Z,47.81
2022-08-16T12:52:53.443Z,46.99
2022-08-16T12:55:59.797Z,47.28
2022-08-16T12:59:16.838Z,46.99
2022-08-16T13:02:33.444Z,46.77
2022-08-16T13:05:47.751Z,46.75
2022-08-16T13:09:02.575Z,46.57
2022-08-16T13:12:21.094Z,46.57
2022-08-16T13:15:30.197Z,46.43
2022-08-16T13:18:38.422Z,46.42
2022-08-16T13:21:45.155Z,46.37
2022-08-16T13:24:56.630Z,46.29
2022-08-16T13:28:06.340Z,46.35
2022-08-16T13:31:12.470Z,46.10
2022-08-16T13:34:22.147Z,46.11
2022-08-16T13:37:28.314Z,46.14
2022-08-16T13:40:34.659Z,45.82
2022-08-16T13:43:42.022Z,45.89
2022-08-16T13:46:48.778Z,45.79
2022-08-16T13:49:57.167Z,45.95
2022-08-16T13:53:04.289Z,45.90
2022-08-16T13:56:11.591Z,45.82
2022-08-16T13:59:31.153Z,45.74
2022-08-16T14:02:41.081Z,45.61
2022-08-16T14:05:47.344Z,45.58
2022-08-16T14:09:06.670Z,45.69
2022-08-16T14:12:22.208Z,45.77
2022-08-16T14:15:28.704Z,46.00
2022-08-16T14:18:38.178Z,45.98
2022-08-16T14:22:13.444Z,46.21
2022-08-16T14:25:18.627Z,46.41
2022-08-16T14:28:25.786Z,46.30
2022-08-16T14:31:35.012Z,46.73
2022-08-16T14:34:45.479Z,46.76
2022-08-16T14:37:57.025Z,47.05
2022-08-16T14:41:03.576Z,47.04
2022-08-16T14:44:13.156Z,47.18
2022-08-16T14:47:20.759Z,47.32
2022-08-16T14:50:28.738Z,47.59
2022-08-16T14:53:35.029Z,47.62
2022-08-16T14:56:46.651Z,47.56
2022-08-16T15:00:05.784Z,47.77
2022-08-16T15:03:12.973Z,48.43
2022-08-16T15:06:20.515Z,48.72
2022-08-16T15:09:26.998Z,49.11
2022-08-16T15:12:36.346Z,49.39
2022-08-16T15:15:44.193Z,50.33
2022-08-16T15:18:58.923Z,50.95
2022-08-16T15:22:05.430Z,51.17
2022-08-16T15:25:14.556Z,51.74
2022-08-16T15:28:30.678Z,52.17
2022-08-16T15:31:41.554Z,52.77
2022-08-16T15:34:50.334Z,52.79
2022-08-16T15:37:56.752Z,53.24
2022-08-16T15:41:03.572Z,53.70
2022-08-16T15:44:13.336Z,54.03
2022-08-16T15:47:19.779Z,54.49
2022-08-16T15:50:25.950Z,54.97
2022-08-16T15:53:32.453Z,55.23
2022-08-16T15:56:51.649Z,55.78
2022-08-16T16:00:04.597Z,56.03
2022-08-16T16:03:15.047Z,56.30
2022-08-16T16:06:21.465Z,56.78
2022-08-16T16:09:37.138Z,57.10
2022-08-16T16:12:51.127Z,57.45
2022-08-16T16:16:03.256Z,57.63
2022-08-16T16:19:09.645Z,57.88
2022-08-16T16:22:17.537Z,58.19
2022-08-16T16:25:24.619Z,58.43
2022-08-16T16:29:06.290Z,58.81
2022-08-16T16:32:00.188Z,58.95
2022-08-16T16:35:07.406Z,59.13
2022-08-16T16:38:14.295Z,59.41
2022-08-16T16:41:25.158Z,59.43
2022-08-16T16:44:36.316Z,59.78
2022-08-16T16:47:44.913Z,59.90
2022-08-16T16:50:51.741Z,60.08
2022-08-16T16:54:00.393Z,60.30
2022-08-16T16:57:26.802Z,60.51
2022-08-16T17:00:38.585Z,60.71
2022-08-16T17:03:45.029Z,60.71
2022-08-16T17:07:00.093Z,60.77
2022-08-16T17:10:06.967Z,60.84
2022-08-16T17:13:14.779Z,60.97
2022-08-16T17:16:21.988Z,61.14
2022-08-16T17:19:41.313Z,61.32
2022-08-16T17:22:54.566Z,61.52
2022-08-16T17:26:01.032Z,61.53
2022-08-16T17:29:11.650Z,61.69
2022-08-16T17:32:33.780Z,61.84
2022-08-16T17:35:55.714Z,62.05
2022-08-16T17:39:02.219Z,62.27
2022-08-16T17:42:15.939Z,62.34
2022-08-16T17:45:22.763Z,62.49
2022-08-16T17:48:31.191Z,62.74
2022-08-16T17:51:37.345Z,62.96
2022-08-16T17:54:45.328Z,62.89
2022-08-16T17:57:52.379Z,63.12
2022-08-16T18:01:01.831Z,63.37
2022-08-16T18:04:10.015Z,63.45
2022-08-16T18:07:16.372Z,63.52
2022-08-16T18:10:32.875Z,63.71
2022-08-16T18:13:43.453Z,63.96
2022-08-16T18:16:49.666Z,64.22
2022-08-16T18:19:55.704Z,64.11
2022-08-16T18:23:12.387Z,64.41
2022-08-16T18:26:21.572Z,64.68
2022-08-16T18:29:27.656Z,64.66
2022-08-16T18:32:34.454Z,64.96
2022-08-16T18:35:40.775Z,65.09
2022-08-16T18:38:46.818Z,65.11
2022-08-16T18:41:52.934Z,65.19
2022-08-16T18:44:59.098Z,65.30
2022-08-16T18:48:05.778Z,65.42
2022-08-16T18:51:18.241Z,65.52
2022-08-16T18:54:28.306Z,65.66
2022-08-16T18:57:34.378Z,65.72
2022-08-16T19:00:56.817Z,65.89
2022-08-16T19:04:03.299Z,65.84
2022-08-16T19:07:09.475Z,66.09
2022-08-16T19:10:15.583Z,66.24
2022-08-16T19:13:24.329Z,66.27
2022-08-16T19:16:30.575Z,66.42
2022-08-16T19:19:36.696Z,66.50
2022-08-16T19:26:24.446Z,66.52
2022-08-16T19:29:32.424Z,66.67
2022-08-16T19:32:39.422Z,66.68
2022-08-16T19:35:45.913Z,66.75
2022-08-16T19:38:52.066Z,66.87
2022-08-16T19:42:00.197Z,66.87
2022-08-16T19:45:08.164Z,67.03
2022-08-16T19:48:14.327Z,67.13
2022-08-16T19:51:20.616Z,67.25
2022-08-16T19:54:26.870Z,67.25
2022-08-16T19:57:33.423Z,67.12
2022-08-16T20:00:43.304Z,67.37
2022-08-16T20:03:49.788Z,67.22
2022-08-16T20:06:56.379Z,67.48
2022-08-16T20:10:03.245Z,67.69
2022-08-16T20:13:14.884Z,67.68
2022-08-16T20:16:20.959Z,67.90
2022-08-16T20:19:28.233Z,67.74
2022-08-16T20:22:52.865Z,67.78
2022-08-16T20:26:01.015Z,67.87
2022-08-16T20:29:07.335Z,67.87
2022-08-16T20:32:16.343Z,67.88
2022-08-16T20:35:25.779Z,68.01
2022-08-16T20:38:31.954Z,68.12
2022-08-16T20:41:38.158Z,68.11
2022-08-16T20:44:45.139Z,68.17
2022-08-16T20:47:51.361Z,68.29
2022-08-16T20:50:59.975Z,68.38
2022-08-16T20:54:06.324Z,68.51
2022-08-16T20:57:13.186Z,68.57
2022-08-16T21:00:20.412Z,68.55
2022-08-16T21:03:26.786Z,68.61
2022-08-16T21:06:32.920Z,68.62
2022-08-16T21:09:39.547Z,68.60
2022-08-16T21:12:53.152Z,68.74
2022-08-16T21:16:00.115Z,68.81
2022-08-16T21:19:06.348Z,68.97
2022-08-16T21:22:20.617Z,69.10
2022-08-16T21:25:27.311Z,69.23
2022-08-16T21:28:41.688Z,69.07
2022-08-16T21:31:49.407Z,69.22
2022-08-16T21:34:55.578Z,69.17
2022-08-16T21:38:28.856Z,69.35
2022-08-16T21:41:28.096Z,69.29
2022-08-16T21:44:38.504Z,69.37
2022-08-16T21:47:45.743Z,69.46
2022-08-16T21:50:51.831Z,69.42
2022-08-16T21:53:58.096Z,69.51
2022-08-16T21:57:10.185Z,69.52
2022-08-16T22:00:19.337Z,69.62
2022-08-16T22:03:25.932Z,69.64
2022-08-16T22:06:32.151Z,69.68
2022-08-16T22:09:38.219Z,69.67
2022-08-16T22:12:44.414Z,69.80
2022-08-16T22:15:51.888Z,69.84
2022-08-16T22:18:58.096Z,70.00
2022-08-16T22:22:04.810Z,69.96
2022-08-16T22:25:11.889Z,70.01
2022-08-16T22:28:18.965Z,70.08
2022-08-16T22:31:25.486Z,69.98
2022-08-16T22:34:31.775Z,70.17
2022-08-16T22:37:37.896Z,70.15
2022-08-16T22:40:44.790Z,70.28
2022-08-16T22:43:50.918Z,70.31
2022-08-16T22:46:57.415Z,70.24
2022-08-16T22:50:03.544Z,70.29
2022-08-16T22:53:10.493Z,70.31
2022-08-16T22:56:17.760Z,70.41
2022-08-16T22:59:25.050Z,70.31
2022-08-16T23:02:31.228Z,70.44
2022-08-16T23:05:40.071Z,70.54
2022-08-16T23:08:46.891Z,70.60
2022-08-16T23:11:53.436Z,70.72
2022-08-16T23:15:02.939Z,70.97
2022-08-16T23:18:10.490Z,71.03
2022-08-16T23:21:19.305Z,70.94
2022-08-16T23:24:25.475Z,71.11
2022-08-16T23:27:31.653Z,71.26
2022-08-16T23:30:40.686Z,71.31
2022-08-16T23:33:47.008Z,71.23
2022-08-16T23:36:53.320Z,71.25
2022-08-16T23:39:59.563Z,71.18
2022-08-16T23:43:07.817Z,71.25
2022-08-16T23:46:17.014Z,71.23
2022-08-16T23:49:56.713Z,71.16
2022-08-16T23:53:05.439Z,71.35
2022-08-16T23:56:14.142Z,71.41
2022-08-16T23:59:20.198Z,71.44
